Terminal Aerodrome Forecast
Issued by NWS

Home | Current Version | Previous Version | Text Only | Print | Product List | Glossary On
Versions: 1 2 3 4 5 6 7 8 9 10 11 12 13 14 15
000
FTUS45 KLKN 271306 AAA
TAFWMC
TAF AMD
KWMC 271306Z 2713/2812 VRB06KT P6SM VCSH SCT060 BKN080
     FM271900 29015G26KT P6SM -SHRASN SCT020 OVC030
     FM280300 31005KT P6SM VCSH FEW050 SCT070=

USA.gov is the U.S. government's official web portal to all federal, state and local government web resources and services.